createdAt,value
2019-03-31T00:00:34.234Z,26.33
2019-03-31T00:03:23.512Z,26.17
2019-03-31T00:06:12.260Z,24.97
2019-03-31T00:09:01.030Z,27.27
2019-03-31T00:11:49.563Z,25.20
2019-03-31T00:14:38.616Z,25.20
2019-03-31T00:17:27.476Z,26.63
2019-03-31T00:20:15.808Z,26.30
2019-03-31T00:23:04.092Z,27.40
2019-03-31T00:25:52.887Z,28.57
2019-03-31T00:28:42.016Z,29.10
2019-03-31T00:31:30.692Z,28.37
2019-03-31T00:34:19.425Z,29.20
2019-03-31T00:37:08.017Z,29.97
2019-03-31T00:39:56.623Z,29.33
2019-03-31T00:42:45.436Z,27.10
2019-03-31T00:45:33.766Z,26.47
2019-03-31T00:48:22.939Z,28.33
2019-03-31T00:51:11.932Z,27.47
2019-03-31T00:54:00.435Z,28.03
2019-03-31T00:56:48.971Z,30.37
2019-03-31T00:59:37.941Z,30.43
2019-03-31T01:02:29.310Z,31.83
2019-03-31T01:05:18.011Z,33.67
2019-03-31T01:08:32.851Z,34.80
2019-03-31T01:11:34.076Z,36.50
2019-03-31T01:14:36.104Z,34.77
2019-03-31T01:20:47.182Z,35.90
2019-03-31T01:23:47.656Z,41.23
2019-03-31T01:26:49.688Z,41.67
2019-03-31T01:29:50.603Z,48.77
2019-03-31T01:32:51.560Z,50.97
2019-03-31T01:35:52.122Z,52.17
2019-03-31T01:38:53.260Z,53.20
2019-03-31T01:41:53.409Z,53.47
2019-03-31T01:48:19.478Z,54.23
2019-03-31T01:51:21.444Z,53.43
2019-03-31T01:54:22.762Z,53.10
2019-03-31T01:57:23.939Z,50.53
2019-03-31T02:03:34.188Z,54.67
2019-03-31T02:06:34.482Z,55.17
2019-03-31T02:09:35.216Z,55.27
2019-03-31T02:12:36.077Z,52.67
2019-03-31T02:15:37.897Z,54.83
2019-03-31T02:18:38.326Z,54.70
2019-03-31T02:21:38.331Z,59.70
2019-03-31T02:24:40.102Z,57.27
2019-03-31T02:27:41.462Z,54.80
2019-03-31T02:30:42.910Z,52.13
2019-03-31T02:33:44.539Z,54.90
2019-03-31T02:36:46.080Z,55.00
2019-03-31T02:39:47.715Z,56.47
2019-03-31T02:42:48.986Z,57.03
2019-03-31T02:45:50.374Z,54.47
2019-03-31T02:48:51.927Z,55.50
2019-03-31T02:51:53.379Z,55.93
2019-03-31T02:54:54.745Z,55.47
2019-03-31T02:57:56.168Z,54.53
2019-03-31T03:00:57.683Z,56.20
2019-03-31T03:03:59.268Z,55.80
2019-03-31T03:07:00.601Z,58.13
2019-03-31T03:10:01.879Z,57.23
2019-03-31T03:13:03.215Z,59.30
2019-03-31T03:16:03.746Z,58.03
2019-03-31T03:19:05.218Z,57.20
2019-03-31T03:22:06.488Z,60.27
2019-03-31T03:25:08.048Z,62.57
2019-03-31T03:28:09.726Z,62.87
2019-03-31T03:31:15.894Z,57.43
2019-03-31T03:34:14.178Z,58.37
2019-03-31T03:37:15.971Z,61.43
2019-03-31T03:40:17.574Z,60.07
2019-03-31T03:43:18.985Z,65.70
2019-03-31T03:46:20.739Z,61.67
2019-03-31T03:49:22.523Z,63.00
2019-03-31T03:52:23.977Z,61.47
2019-03-31T03:55:25.324Z,58.53
2019-03-31T03:58:26.453Z,62.40
2019-03-31T04:01:29.225Z,63.07
2019-03-31T04:04:30.748Z,64.57
2019-03-31T04:07:32.041Z,62.03
2019-03-31T04:10:33.378Z,64.07
2019-03-31T04:13:34.863Z,62.87
2019-03-31T04:16:36.339Z,65.10
2019-03-31T04:19:37.671Z,65.77
2019-03-31T04:22:39.436Z,64.13
2019-03-31T04:25:41.035Z,64.00
2019-03-31T04:28:42.522Z,63.00
2019-03-31T04:31:43.940Z,62.77
2019-03-31T04:34:45.229Z,64.03
2019-03-31T04:37:46.587Z,63.53
2019-03-31T04:40:47.948Z,61.17
2019-03-31T04:43:49.173Z,64.80
2019-03-31T04:46:51.029Z,57.50
2019-03-31T04:49:51.982Z,61.20
2019-03-31T04:52:53.647Z,58.37
2019-03-31T04:55:54.963Z,58.43
2019-03-31T04:58:56.675Z,53.60
2019-03-31T05:01:58.383Z,57.90
2019-03-31T05:04:59.753Z,52.00
2019-03-31T05:08:00.887Z,54.77
2019-03-31T05:11:02.419Z,49.40
2019-03-31T05:14:03.578Z,52.00
2019-03-31T05:17:04.934Z,50.70
2019-03-31T05:20:06.110Z,51.80
2019-03-31T05:23:07.498Z,51.67
2019-03-31T05:26:07.807Z,51.93
2019-03-31T05:29:09.268Z,52.30
2019-03-31T05:32:10.784Z,53.73
2019-03-31T05:35:12.051Z,51.97
2019-03-31T05:38:13.556Z,48.63
2019-03-31T05:41:15.584Z,50.90
2019-03-31T05:44:17.385Z,50.40
2019-03-31T05:47:18.852Z,48.80
2019-03-31T05:50:19.874Z,49.20
2019-03-31T05:53:21.297Z,48.67
2019-03-31T05:56:22.764Z,49.93
2019-03-31T05:59:23.946Z,46.97
2019-03-31T06:02:25.380Z,46.20
2019-03-31T06:05:25.699Z,48.53
2019-03-31T06:08:27.073Z,51.33
2019-03-31T06:11:28.195Z,46.73
2019-03-31T06:14:29.762Z,47.77
2019-03-31T06:17:30.852Z,46.20
2019-03-31T06:20:32.090Z,44.67
2019-03-31T06:23:33.322Z,44.50
2019-03-31T06:26:34.753Z,44.70
2019-03-31T06:29:36.119Z,42.60
2019-03-31T06:32:37.702Z,43.90
2019-03-31T06:35:39.198Z,42.37
2019-03-31T06:38:40.372Z,44.23
2019-03-31T06:41:42.383Z,43.07
2019-03-31T06:44:43.531Z,40.60
2019-03-31T06:50:55.033Z,41.03
2019-03-31T06:53:56.080Z,39.73
2019-03-31T06:56:57.561Z,41.13
2019-03-31T06:59:58.635Z,41.23
2019-03-31T07:03:00.385Z,40.90
2019-03-31T07:06:01.920Z,40.83
2019-03-31T07:09:05.632Z,40.57
2019-03-31T07:12:07.472Z,42.93
2019-03-31T07:15:08.807Z,44.77
2019-03-31T07:18:10.104Z,43.17
2019-03-31T07:21:11.111Z,41.40
2019-03-31T07:24:12.512Z,46.90
2019-03-31T07:27:13.691Z,43.77
2019-03-31T07:30:15.008Z,42.00
2019-03-31T07:39:35.169Z,43.33
2019-03-31T07:42:56.106Z,42.20
2019-03-31T07:49:35.551Z,40.77
2019-03-31T07:52:37.025Z,39.47
2019-03-31T07:55:37.418Z,37.87
2019-03-31T07:58:38.995Z,35.93
2019-03-31T08:05:38.147Z,31.30
2019-03-31T08:08:39.915Z,29.20
2019-03-31T08:15:20.447Z,26.90
2019-03-31T08:18:21.805Z,28.00
2019-03-31T08:21:22.296Z,27.03
2019-03-31T08:24:23.796Z,25.40
2019-03-31T08:27:23.607Z,26.30
2019-03-31T08:30:24.727Z,26.17
2019-03-31T08:33:26.159Z,23.27
2019-03-31T08:43:20.274Z,23.77
2019-03-31T08:46:21.702Z,24.27
2019-03-31T08:49:42.433Z,23.30
2019-03-31T08:52:44.210Z,23.47
2019-03-31T08:56:04.501Z,22.43
2019-03-31T08:59:05.437Z,18.33
2019-03-31T09:12:00.218Z,16.70
2019-03-31T09:15:01.215Z,14.10
2019-03-31T09:18:02.471Z,16.63
2019-03-31T09:24:41.723Z,16.53
2019-03-31T09:27:41.991Z,17.10
2019-03-31T09:30:30.578Z,15.60
2019-03-31T09:33:19.893Z,15.50
2019-03-31T09:36:15.965Z,15.03
2019-03-31T09:38:58.911Z,15.07
2019-03-31T09:41:47.876Z,15.43
2019-03-31T09:44:36.617Z,16.10
2019-03-31T09:47:25.063Z,15.47
2019-03-31T09:50:17.310Z,14.87
2019-03-31T09:53:05.449Z,14.47
2019-03-31T09:55:54.183Z,13.50
2019-03-31T09:58:42.263Z,13.43
2019-03-31T10:01:31.317Z,12.90
2019-03-31T10:04:19.906Z,13.80
2019-03-31T10:07:09.238Z,13.37
2019-03-31T10:09:58.213Z,12.17
2019-03-31T10:12:46.272Z,11.53
2019-03-31T10:15:34.736Z,12.10
2019-03-31T10:18:23.055Z,13.10
2019-03-31T10:21:12.169Z,12.30
2019-03-31T10:24:00.902Z,11.50
2019-03-31T10:26:49.419Z,11.17
2019-03-31T10:29:38.179Z,11.37
2019-03-31T10:32:26.508Z,10.93
2019-03-31T10:35:15.418Z,10.67
2019-03-31T10:38:03.943Z,12.10
2019-03-31T10:40:52.697Z,12.37
2019-03-31T10:43:40.829Z,11.37
2019-03-31T10:46:29.576Z,11.37
2019-03-31T10:49:18.685Z,12.37
2019-03-31T10:52:07.024Z,11.53
2019-03-31T10:54:56.615Z,12.63
2019-03-31T10:57:45.059Z,11.43
2019-03-31T11:00:35.540Z,12.30
2019-03-31T11:03:24.532Z,11.37
2019-03-31T11:06:13.286Z,11.40
2019-03-31T11:09:02.384Z,10.70
2019-03-31T11:11:50.892Z,11.20
2019-03-31T11:14:39.928Z,10.83
2019-03-31T11:17:28.987Z,11.10
2019-03-31T11:20:17.674Z,11.07
2019-03-31T11:23:36.956Z,10.70
2019-03-31T11:26:26.342Z,11.70
2019-03-31T11:29:15.298Z,10.40
2019-03-31T11:32:04.243Z,11.40
2019-03-31T11:34:52.866Z,11.10
2019-03-31T11:37:41.760Z,10.47
2019-03-31T11:40:30.530Z,11.40
2019-03-31T11:43:19.238Z,10.30
2019-03-31T11:46:08.276Z,11.90
2019-03-31T11:48:57.390Z,12.47
2019-03-31T11:51:46.459Z,10.30
2019-03-31T11:54:35.084Z,11.67
2019-03-31T11:57:24.084Z,11.27
2019-03-31T12:00:16.401Z,10.87
2019-03-31T12:03:05.737Z,12.10
2019-03-31T12:05:54.752Z,10.80
2019-03-31T12:08:43.594Z,13.03
2019-03-31T12:11:32.154Z,12.17
2019-03-31T12:14:20.498Z,11.97
2019-03-31T12:17:09.503Z,10.30
2019-03-31T12:19:58.630Z,11.43
2019-03-31T12:22:47.482Z,9.73
2019-03-31T12:25:36.523Z,10.30
2019-03-31T12:28:24.978Z,9.10
2019-03-31T12:31:13.767Z,8.87
2019-03-31T12:34:02.807Z,8.60
2019-03-31T12:36:51.638Z,8.73
2019-03-31T12:39:40.088Z,8.17
2019-03-31T12:42:28.867Z,8.60
2019-03-31T12:45:17.599Z,8.50
2019-03-31T12:48:06.720Z,8.60
2019-03-31T12:50:55.402Z,8.90
2019-03-31T12:53:43.949Z,9.10
2019-03-31T12:56:32.699Z,9.10
2019-03-31T12:59:21.783Z,9.10
2019-03-31T13:02:10.444Z,10.37
2019-03-31T13:04:59.353Z,8.87
2019-03-31T13:07:56.264Z,9.53
2019-03-31T13:10:38.596Z,9.10
2019-03-31T13:13:26.937Z,8.83
2019-03-31T13:16:15.963Z,8.70
2019-03-31T13:19:05.007Z,8.20
2019-03-31T13:21:54.202Z,8.77
2019-03-31T13:24:43.059Z,7.87
2019-03-31T13:27:31.795Z,8.00
2019-03-31T13:30:21.931Z,7.33
2019-03-31T13:33:09.937Z,7.27
2019-03-31T13:35:58.977Z,7.03
2019-03-31T13:38:47.756Z,6.97
2019-03-31T13:41:36.960Z,6.23
2019-03-31T13:44:25.659Z,6.10
2019-03-31T13:47:14.478Z,5.30
2019-03-31T13:50:04.219Z,6.30
2019-03-31T13:52:53.087Z,5.27
2019-03-31T13:55:41.936Z,5.63
2019-03-31T13:58:31.001Z,5.20
2019-03-31T14:01:20.952Z,5.20
2019-03-31T14:04:09.543Z,4.27
2019-03-31T14:06:58.439Z,5.23
2019-03-31T14:09:47.456Z,4.60
2019-03-31T14:12:36.139Z,4.97
2019-03-31T14:15:24.960Z,4.90
2019-03-31T14:18:13.784Z,4.43
2019-03-31T14:21:02.758Z,4.60
2019-03-31T14:23:51.051Z,4.90
2019-03-31T14:26:39.600Z,3.97
2019-03-31T14:29:28.113Z,5.00
2019-03-31T14:32:16.699Z,4.80
2019-03-31T14:35:05.435Z,4.83
2019-03-31T14:37:54.543Z,4.30
2019-03-31T14:40:43.092Z,4.70
2019-03-31T14:43:31.663Z,4.13
2019-03-31T14:46:20.192Z,4.37
2019-03-31T14:49:08.503Z,4.80
2019-03-31T14:52:00.994Z,4.50
2019-03-31T14:54:47.560Z,4.30
2019-03-31T14:57:36.115Z,4.40
2019-03-31T15:00:24.887Z,5.23
2019-03-31T15:03:13.664Z,4.23
2019-03-31T15:06:02.250Z,4.13
2019-03-31T15:08:54.619Z,4.60
2019-03-31T15:11:41.211Z,3.77
2019-03-31T15:14:30.258Z,4.03
2019-03-31T15:17:19.192Z,3.87
2019-03-31T15:20:08.227Z,4.77
2019-03-31T15:22:57.223Z,4.20
2019-03-31T15:25:46.197Z,4.17
2019-03-31T15:28:34.192Z,3.87
2019-03-31T15:31:22.841Z,4.47
2019-03-31T15:34:11.474Z,3.90
2019-03-31T15:37:00.000Z,5.00
2019-03-31T15:39:48.426Z,4.80
2019-03-31T15:42:37.727Z,5.40
2019-03-31T15:45:26.307Z,5.50
2019-03-31T15:48:15.104Z,5.50
2019-03-31T15:51:03.211Z,5.27
2019-03-31T15:53:52.012Z,5.00
2019-03-31T15:56:40.884Z,5.70
2019-03-31T15:59:29.755Z,4.97
2019-03-31T16:02:19.733Z,4.70
2019-03-31T16:05:08.625Z,5.23
2019-03-31T16:07:57.323Z,5.13
2019-03-31T16:10:45.725Z,4.77
2019-03-31T16:13:33.522Z,3.80
2019-03-31T16:16:21.739Z,4.37
2019-03-31T16:19:10.152Z,4.20
2019-03-31T16:21:58.107Z,5.17
2019-03-31T16:24:48.796Z,4.43
2019-03-31T16:27:36.825Z,4.80
2019-03-31T16:30:25.782Z,5.40
2019-03-31T16:33:13.999Z,3.97
2019-03-31T16:36:02.404Z,4.70
2019-03-31T16:38:50.760Z,4.20
2019-03-31T16:41:39.555Z,3.80
2019-03-31T16:44:27.754Z,4.20
2019-03-31T16:47:15.958Z,3.73
2019-03-31T16:50:04.623Z,4.00
2019-03-31T16:52:52.910Z,4.60
2019-03-31T16:55:41.534Z,4.10
2019-03-31T16:58:29.963Z,3.80
2019-03-31T17:01:17.443Z,4.03
2019-03-31T17:04:05.787Z,4.40
2019-03-31T17:06:54.140Z,4.03
2019-03-31T17:09:51.457Z,3.17
2019-03-31T17:12:32.001Z,3.13
2019-03-31T17:15:20.439Z,3.40
2019-03-31T17:18:08.397Z,3.30
2019-03-31T17:20:56.376Z,3.13
2019-03-31T17:23:44.610Z,3.20
2019-03-31T17:26:32.771Z,3.80
2019-03-31T17:29:20.731Z,3.10
2019-03-31T17:32:08.471Z,4.10
2019-03-31T17:34:57.291Z,2.90
2019-03-31T17:37:45.818Z,3.90
2019-03-31T17:40:34.270Z,3.50
2019-03-31T17:43:22.252Z,4.00
2019-03-31T17:46:09.772Z,3.60
2019-03-31T17:48:58.219Z,4.20
2019-03-31T17:51:46.478Z,2.80
2019-03-31T17:54:35.078Z,4.60
2019-03-31T17:57:23.392Z,3.57
2019-03-31T18:00:13.113Z,3.50
2019-03-31T18:03:01.031Z,3.77
2019-03-31T18:05:49.586Z,4.00
2019-03-31T18:08:37.763Z,3.17
2019-03-31T18:11:25.327Z,2.93
2019-03-31T18:14:13.555Z,2.93
2019-03-31T18:17:02.077Z,2.63
2019-03-31T18:19:50.471Z,3.43
2019-03-31T18:22:38.399Z,3.50
2019-03-31T18:25:27.050Z,3.30
2019-03-31T18:28:15.101Z,3.13
2019-03-31T18:31:03.445Z,2.67
2019-03-31T18:33:51.465Z,4.80
2019-03-31T18:36:39.706Z,2.80
2019-03-31T18:39:28.465Z,4.20
2019-03-31T18:42:16.491Z,3.50
2019-03-31T18:45:06.183Z,3.63
2019-03-31T18:47:54.421Z,4.77
2019-03-31T18:50:42.567Z,3.40
2019-03-31T18:53:58.990Z,2.70
2019-03-31T18:57:24.002Z,3.03
2019-03-31T19:00:30.857Z,3.33
2019-03-31T19:03:36.430Z,3.20
2019-03-31T19:06:31.301Z,3.67
2019-03-31T19:09:37.571Z,3.17
2019-03-31T19:12:44.048Z,3.33
2019-03-31T19:16:00.156Z,3.37
2019-03-31T19:19:17.793Z,3.10
2019-03-31T19:22:28.776Z,3.00
2019-03-31T19:25:27.115Z,3.47
2019-03-31T19:28:33.723Z,3.47
2019-03-31T19:31:47.067Z,3.57
2019-03-31T19:34:44.461Z,3.60
2019-03-31T19:38:06.727Z,3.67
2019-03-31T19:41:12.025Z,4.00
2019-03-31T19:44:19.321Z,3.33
2019-03-31T19:47:18.403Z,3.53
2019-03-31T19:50:16.838Z,3.33
2019-03-31T19:53:19.104Z,3.73
2019-03-31T19:56:25.811Z,3.90
2019-03-31T19:59:24.128Z,4.07
2019-03-31T20:02:40.425Z,3.53
2019-03-31T20:05:48.683Z,3.97
2019-03-31T20:08:48.787Z,4.03
2019-03-31T20:11:46.974Z,3.40
2019-03-31T20:14:58.828Z,3.37
2019-03-31T20:18:07.187Z,3.10
2019-03-31T20:21:31.056Z,3.67
2019-03-31T20:24:41.176Z,3.03
2019-03-31T20:27:45.103Z,3.80
2019-03-31T20:30:59.193Z,3.30
2019-03-31T20:34:00.649Z,2.77
2019-03-31T20:37:07.015Z,3.10
2019-03-31T20:40:12.444Z,2.70
2019-03-31T20:43:18.958Z,2.90
2019-03-31T20:46:07.195Z,2.23
2019-03-31T20:48:55.627Z,2.93
2019-03-31T20:51:43.643Z,1.93
2019-03-31T20:54:33.115Z,2.37
2019-03-31T20:57:22.370Z,2.60
2019-03-31T21:00:10.770Z,2.27
2019-03-31T21:02:59.199Z,2.97
2019-03-31T21:05:47.523Z,3.10
2019-03-31T21:08:35.155Z,2.60
2019-03-31T21:11:23.782Z,2.13
2019-03-31T21:14:11.831Z,2.70
2019-03-31T21:17:00.278Z,2.57
2019-03-31T21:19:49.064Z,2.43
2019-03-31T21:22:37.920Z,1.97
2019-03-31T21:25:26.147Z,2.10
2019-03-31T21:28:14.387Z,1.97
2019-03-31T21:31:03.209Z,3.10
2019-03-31T21:33:51.196Z,2.10
2019-03-31T21:36:39.263Z,2.07
2019-03-31T21:39:27.806Z,2.33
2019-03-31T21:42:15.311Z,2.70
2019-03-31T21:45:02.946Z,2.80
2019-03-31T21:47:51.252Z,1.80
2019-03-31T21:50:39.484Z,3.13
2019-03-31T21:53:27.861Z,2.63
2019-03-31T21:56:16.171Z,2.33
2019-03-31T21:59:04.923Z,2.60
2019-03-31T22:01:53.614Z,2.20
2019-03-31T22:04:41.757Z,2.10
2019-03-31T22:07:30.324Z,2.40
2019-03-31T22:10:18.591Z,3.10
2019-03-31T22:13:06.925Z,2.37
2019-03-31T22:15:55.470Z,2.37
2019-03-31T22:18:43.488Z,2.27
2019-03-31T22:21:32.202Z,2.50
2019-03-31T22:24:21.171Z,2.93
2019-03-31T22:27:09.615Z,2.67
2019-03-31T22:29:57.794Z,2.07
2019-03-31T22:32:45.539Z,2.33
2019-03-31T22:35:34.140Z,3.17
2019-03-31T22:38:22.628Z,2.33
2019-03-31T22:41:10.920Z,2.40
2019-03-31T22:43:58.507Z,3.00
2019-03-31T22:46:54.098Z,2.60
2019-03-31T22:49:36.483Z,2.73
2019-03-31T22:52:24.893Z,2.20
2019-03-31T22:55:13.082Z,3.83
2019-03-31T22:58:00.876Z,2.70
2019-03-31T23:00:49.393Z,3.17
2019-03-31T23:03:37.687Z,2.57
2019-03-31T23:06:25.219Z,3.03
2019-03-31T23:09:13.663Z,3.00
2019-03-31T23:12:01.456Z,2.63
2019-03-31T23:14:49.053Z,2.53
2019-03-31T23:17:37.480Z,2.17
2019-03-31T23:20:25.667Z,2.77
2019-03-31T23:23:13.723Z,2.67
2019-03-31T23:41:12.959Z,2.33
2019-03-31T23:44:01.019Z,2.70
2019-03-31T23:46:49.273Z,2.80
2019-03-31T23:49:37.227Z,2.47
2019-03-31T23:52:24.810Z,2.37
2019-03-31T23:55:13.167Z,2.53
2019-03-31T23:58:01.187Z,2.50
